Terminal Aerodrome Forecast
Issued by NWS La Crosse, WI

Home | Current Version | Previous Version | Text Only | Print | Product List | Glossary On
Versions: 1 2 3 4 5 6 7 8 9 10 11 12 13 14 15 16 17 18
000
FTUS43 KARX 231120
TAFRST
TAF
KRST 231120Z 2312/2412 19009KT P6SM FEW250
     FM231700 20011G22KT P6SM FEW045
     FM240000 17008KT P6SM SCT250=

USA.gov is the U.S. government's official web portal to all federal, state and local government web resources and services.